createdAt,value
2019-03-29T00:00:22.038Z,21.30
2019-03-29T00:01:22.018Z,20.60
2019-03-29T00:02:21.996Z,20.50
2019-03-29T00:03:21.983Z,20.40
2019-03-29T00:04:21.962Z,21.20
2019-03-29T00:05:21.942Z,22.50
2019-03-29T00:06:21.922Z,23.30
2019-03-29T00:07:21.930Z,23.90
2019-03-29T00:08:21.885Z,23.30
2019-03-29T00:09:21.870Z,23.50
2019-03-29T00:10:21.842Z,22.70
2019-03-29T00:11:21.826Z,23.90
2019-03-29T00:12:21.804Z,21.00
2019-03-29T00:13:22.394Z,23.40
2019-03-29T00:14:23.450Z,22.60
2019-03-29T00:15:21.753Z,20.10
2019-03-29T00:16:21.731Z,21.40
2019-03-29T00:17:21.710Z,22.80
2019-03-29T00:18:21.690Z,23.70
2019-03-29T00:19:21.671Z,22.70
2019-03-29T00:20:21.652Z,23.20
2019-03-29T00:21:21.635Z,21.90
2019-03-29T00:22:21.614Z,23.80
2019-03-29T00:23:22.397Z,21.80
2019-03-29T00:24:21.573Z,22.60
2019-03-29T00:25:21.555Z,21.40
2019-03-29T00:26:21.538Z,24.00
2019-03-29T00:27:21.517Z,24.70
2019-03-29T00:28:21.501Z,22.40
2019-03-29T00:29:21.480Z,24.50
2019-03-29T00:30:22.112Z,23.80
2019-03-29T00:31:21.441Z,23.90
2019-03-29T00:32:21.419Z,24.00
2019-03-29T00:33:21.403Z,23.20
2019-03-29T00:34:21.385Z,22.90
2019-03-29T00:35:21.361Z,23.00
2019-03-29T00:36:21.343Z,22.80
2019-03-29T00:37:21.319Z,22.00
2019-03-29T00:38:21.305Z,20.00
2019-03-29T00:39:21.286Z,20.10
2019-03-29T00:40:21.265Z,20.50
2019-03-29T00:41:21.244Z,20.50
2019-03-29T00:42:21.231Z,20.80
2019-03-29T00:43:21.292Z,20.10
2019-03-29T00:44:21.200Z,21.20
2019-03-29T00:45:21.173Z,20.60
2019-03-29T00:46:21.154Z,20.00
2019-03-29T00:47:21.133Z,19.80
2019-03-29T00:48:21.247Z,22.30
2019-03-29T00:49:21.091Z,23.40
2019-03-29T00:50:21.074Z,22.20
2019-03-29T00:51:21.056Z,21.80
2019-03-29T00:52:21.034Z,22.00
2019-03-29T00:53:21.014Z,22.40
2019-03-29T00:54:20.991Z,22.90
2019-03-29T00:55:21.188Z,24.10
2019-03-29T00:56:20.957Z,22.00
2019-03-29T00:57:20.936Z,21.80
2019-03-29T00:58:20.918Z,23.20
2019-03-29T00:59:20.900Z,22.90
2019-03-29T01:00:20.885Z,23.10
2019-03-29T01:01:20.857Z,20.80
2019-03-29T01:02:20.841Z,21.80
2019-03-29T01:03:20.822Z,23.40
2019-03-29T01:04:20.799Z,24.20
2019-03-29T01:05:21.001Z,27.20
2019-03-29T01:06:20.761Z,24.80
2019-03-29T01:07:20.741Z,25.00
2019-03-29T01:08:20.721Z,24.90
2019-03-29T01:09:20.705Z,25.60
2019-03-29T01:10:20.683Z,28.10
2019-03-29T01:11:20.669Z,25.00
2019-03-29T01:12:20.648Z,25.90
2019-03-29T01:13:20.624Z,23.90
2019-03-29T01:14:20.609Z,24.90
2019-03-29T01:15:20.591Z,24.60
2019-03-29T01:16:20.567Z,23.30
2019-03-29T01:17:20.551Z,26.00
2019-03-29T01:18:20.528Z,24.70
2019-03-29T01:19:20.511Z,24.50
2019-03-29T01:20:21.784Z,23.40
2019-03-29T01:21:20.471Z,23.10
2019-03-29T01:22:20.457Z,23.60
2019-03-29T01:23:20.435Z,25.40
2019-03-29T01:24:20.414Z,27.20
2019-03-29T01:25:20.393Z,29.10
2019-03-29T01:26:20.377Z,28.40
2019-03-29T01:27:20.357Z,28.80
2019-03-29T01:28:20.335Z,25.80
2019-03-29T01:29:20.317Z,27.20
2019-03-29T01:30:20.306Z,28.90
2019-03-29T01:31:20.281Z,27.60
2019-03-29T01:32:20.262Z,27.30
2019-03-29T01:33:20.237Z,26.90
2019-03-29T01:34:20.224Z,27.80
2019-03-29T01:35:20.204Z,30.00
2019-03-29T01:36:20.182Z,30.10
2019-03-29T01:37:20.176Z,28.50
2019-03-29T01:38:22.332Z,29.70
2019-03-29T01:39:20.123Z,28.80
2019-03-29T01:40:20.107Z,28.30
2019-03-29T01:41:20.082Z,28.10
2019-03-29T01:42:20.064Z,30.80
2019-03-29T01:43:20.049Z,31.70
2019-03-29T01:44:20.034Z,30.50
2019-03-29T01:45:20.062Z,29.60
2019-03-29T01:46:19.990Z,28.30
2019-03-29T01:47:19.973Z,28.60
2019-03-29T01:48:19.954Z,29.50
2019-03-29T01:49:19.930Z,29.00
2019-03-29T01:50:19.911Z,29.10
2019-03-29T01:51:19.896Z,30.30
2019-03-29T01:52:20.032Z,30.10
2019-03-29T01:53:19.854Z,32.30
2019-03-29T01:54:19.835Z,32.00
2019-03-29T01:55:19.814Z,33.00
2019-03-29T01:56:19.804Z,34.40
2019-03-29T01:57:19.776Z,34.00
2019-03-29T01:58:19.759Z,32.00
2019-03-29T01:59:19.732Z,31.10
2019-03-29T02:00:19.716Z,32.20
2019-03-29T02:01:19.698Z,31.40
2019-03-29T02:02:20.272Z,31.00
2019-03-29T02:03:19.658Z,29.30
2019-03-29T02:04:19.692Z,29.40
2019-03-29T02:05:19.620Z,31.90
2019-03-29T02:06:19.880Z,30.70
2019-03-29T02:07:19.584Z,30.20
2019-03-29T02:08:19.566Z,30.30
2019-03-29T02:09:19.554Z,31.00
2019-03-29T02:10:19.528Z,30.90
2019-03-29T02:11:19.507Z,30.40
2019-03-29T02:12:19.483Z,30.80
2019-03-29T02:13:19.468Z,30.10
2019-03-29T02:14:19.449Z,31.00
2019-03-29T02:15:19.428Z,30.40
2019-03-29T02:16:19.411Z,31.90
2019-03-29T02:17:19.391Z,32.90
2019-03-29T02:18:19.369Z,34.30
2019-03-29T02:19:19.359Z,31.30
2019-03-29T02:20:19.332Z,31.70
2019-03-29T02:21:19.310Z,32.30
2019-03-29T02:22:19.296Z,33.00
2019-03-29T02:23:19.278Z,32.50
2019-03-29T02:24:19.252Z,29.80
2019-03-29T02:25:19.236Z,30.20
2019-03-29T02:26:19.219Z,30.80
2019-03-29T02:27:19.198Z,31.00
2019-03-29T02:28:19.240Z,29.60
2019-03-29T02:29:19.156Z,30.10
2019-03-29T02:30:19.149Z,29.70
2019-03-29T02:31:19.124Z,29.50
2019-03-29T02:32:19.106Z,29.90
2019-03-29T02:33:20.584Z,29.20
2019-03-29T02:34:19.064Z,30.70
2019-03-29T02:35:19.043Z,30.00
2019-03-29T02:36:19.023Z,29.50
2019-03-29T02:37:19.009Z,31.60
2019-03-29T02:38:18.980Z,32.20
2019-03-29T02:39:18.969Z,31.20
2019-03-29T02:40:18.945Z,31.80
2019-03-29T02:41:19.465Z,30.70
2019-03-29T02:42:18.910Z,31.30
2019-03-29T02:43:18.889Z,30.60
2019-03-29T02:44:18.873Z,31.70
2019-03-29T02:45:18.847Z,33.10
2019-03-29T02:46:18.829Z,30.90
2019-03-29T02:47:18.813Z,32.40
2019-03-29T02:48:18.791Z,31.50
2019-03-29T02:49:18.772Z,32.80
2019-03-29T02:50:18.760Z,30.40
2019-03-29T02:51:18.733Z,32.80
2019-03-29T02:52:18.715Z,31.80
2019-03-29T02:53:18.696Z,30.10
2019-03-29T02:54:18.673Z,30.40
2019-03-29T02:55:18.656Z,29.70
2019-03-29T02:56:18.638Z,30.50
2019-03-29T02:57:18.618Z,32.30
2019-03-29T02:58:18.597Z,32.50
2019-03-29T02:59:18.583Z,33.70
2019-03-29T03:00:18.558Z,31.20
2019-03-29T03:01:18.539Z,32.80
2019-03-29T03:02:18.527Z,31.80
2019-03-29T03:03:18.501Z,31.20
2019-03-29T03:04:18.483Z,33.10
2019-03-29T03:05:18.458Z,33.90
2019-03-29T03:06:18.446Z,31.90
2019-03-29T03:07:18.449Z,31.30
2019-03-29T03:08:18.415Z,31.40
2019-03-29T03:09:18.388Z,29.70
2019-03-29T03:10:18.391Z,30.00
2019-03-29T03:11:18.351Z,31.00
2019-03-29T03:12:18.326Z,30.90
2019-03-29T03:13:18.309Z,30.60
2019-03-29T03:14:18.286Z,31.30
2019-03-29T03:15:18.269Z,30.30
2019-03-29T03:16:18.248Z,31.00
2019-03-29T03:17:18.228Z,30.80
2019-03-29T03:18:18.211Z,31.80
2019-03-29T03:19:18.195Z,30.90
2019-03-29T03:20:18.179Z,32.20
2019-03-29T03:21:18.151Z,31.30
2019-03-29T03:22:18.148Z,31.20
2019-03-29T03:23:18.114Z,32.60
2019-03-29T03:24:18.098Z,31.90
2019-03-29T03:25:18.075Z,32.30
2019-03-29T03:26:18.056Z,31.10
2019-03-29T03:27:18.035Z,32.00
2019-03-29T03:28:18.022Z,31.80
2019-03-29T03:29:18.007Z,31.50
2019-03-29T03:30:17.978Z,33.60
2019-03-29T03:31:17.963Z,34.00
2019-03-29T03:32:17.967Z,34.90
2019-03-29T03:33:17.919Z,34.40
2019-03-29T03:34:17.903Z,33.70
2019-03-29T03:35:17.899Z,34.10
2019-03-29T03:36:17.861Z,33.10
2019-03-29T03:37:17.844Z,35.40
2019-03-29T03:38:17.829Z,33.40
2019-03-29T03:39:31.433Z,33.20
2019-03-29T03:40:17.785Z,33.10
2019-03-29T03:41:17.769Z,33.10
2019-03-29T03:42:17.746Z,33.40
2019-03-29T03:43:17.726Z,33.80
2019-03-29T03:44:17.708Z,33.30
2019-03-29T03:45:17.685Z,33.10
2019-03-29T03:46:17.665Z,32.20
2019-03-29T03:47:17.646Z,32.00
2019-03-29T03:48:17.627Z,33.60
2019-03-29T03:49:17.611Z,35.30
2019-03-29T03:50:17.591Z,33.20
2019-03-29T03:51:17.574Z,33.60
2019-03-29T03:52:17.554Z,33.60
2019-03-29T03:53:17.535Z,32.60
2019-03-29T03:54:17.510Z,32.10
2019-03-29T03:55:17.501Z,31.10
2019-03-29T03:56:17.472Z,30.30
2019-03-29T03:57:17.455Z,30.70
2019-03-29T03:58:17.441Z,30.30
2019-03-29T03:59:17.435Z,30.60
2019-03-29T04:00:17.400Z,31.40
2019-03-29T04:01:17.376Z,32.40
2019-03-29T04:02:17.378Z,32.30
2019-03-29T04:03:17.335Z,32.20
2019-03-29T04:04:17.318Z,31.30
2019-03-29T04:05:17.305Z,31.00
2019-03-29T04:06:17.299Z,32.00
2019-03-29T04:07:17.268Z,31.60
2019-03-29T04:08:17.266Z,30.00
2019-03-29T04:09:17.222Z,31.40
2019-03-29T04:10:17.206Z,30.90
2019-03-29T04:11:17.195Z,30.30
2019-03-29T04:12:17.164Z,31.20
2019-03-29T04:13:17.148Z,32.40
2019-03-29T04:14:17.126Z,32.10
2019-03-29T04:15:17.112Z,32.40
2019-03-29T04:16:17.089Z,32.10
2019-03-29T04:17:17.069Z,31.90
2019-03-29T04:18:17.052Z,31.00
2019-03-29T04:19:17.166Z,31.20
2019-03-29T04:20:17.011Z,31.70
2019-03-29T04:21:16.990Z,30.20
2019-03-29T04:22:16.972Z,31.80
2019-03-29T04:23:16.956Z,31.50
2019-03-29T04:24:16.931Z,32.40
2019-03-29T04:25:16.931Z,33.30
2019-03-29T04:26:16.898Z,32.40
2019-03-29T04:27:16.870Z,33.10
2019-03-29T04:28:16.857Z,32.50
2019-03-29T04:29:16.843Z,34.10
2019-03-29T04:30:16.826Z,33.30
2019-03-29T04:31:16.798Z,35.30
2019-03-29T04:32:16.776Z,33.60
2019-03-29T04:33:16.767Z,33.90
2019-03-29T04:34:16.740Z,32.50
2019-03-29T04:35:16.728Z,31.30
2019-03-29T04:36:16.698Z,31.70
2019-03-29T04:37:16.680Z,32.40
2019-03-29T04:38:16.660Z,32.40
2019-03-29T04:39:16.725Z,31.70
2019-03-29T04:40:16.622Z,34.00
2019-03-29T04:41:16.606Z,32.90
2019-03-29T04:42:16.585Z,31.30
2019-03-29T04:43:16.573Z,32.20
2019-03-29T04:44:16.542Z,32.90
2019-03-29T04:45:16.528Z,34.00
2019-03-29T04:46:16.504Z,33.60
2019-03-29T04:47:16.485Z,34.00
2019-03-29T04:48:16.473Z,34.40
2019-03-29T04:49:16.454Z,34.00
2019-03-29T04:50:16.430Z,34.90
2019-03-29T04:51:16.409Z,34.10
2019-03-29T04:52:16.390Z,32.70
2019-03-29T04:53:16.370Z,33.80
2019-03-29T04:54:16.352Z,35.20
2019-03-29T04:55:16.332Z,35.90
2019-03-29T04:56:16.314Z,37.70
2019-03-29T04:57:16.292Z,36.20
2019-03-29T04:58:16.280Z,35.10
2019-03-29T04:59:16.256Z,35.00
2019-03-29T05:00:16.248Z,34.60
2019-03-29T05:01:17.458Z,36.00
2019-03-29T05:02:16.198Z,35.40
2019-03-29T05:03:16.186Z,36.30
2019-03-29T05:04:16.157Z,35.70
2019-03-29T05:05:16.140Z,36.00
2019-03-29T05:06:16.120Z,35.30
2019-03-29T05:07:16.102Z,34.70
2019-03-29T05:08:16.086Z,36.10
2019-03-29T05:09:16.066Z,36.60
2019-03-29T05:10:21.533Z,34.40
2019-03-29T05:11:16.023Z,35.20
2019-03-29T05:12:16.006Z,34.40
2019-03-29T05:13:15.985Z,33.70
2019-03-29T05:14:15.968Z,32.90
2019-03-29T05:15:15.950Z,32.20
2019-03-29T05:16:15.926Z,32.00
2019-03-29T05:17:15.915Z,32.60
2019-03-29T05:18:15.889Z,35.10
2019-03-29T05:19:15.864Z,32.80
2019-03-29T05:20:15.847Z,33.40
2019-03-29T05:21:15.835Z,33.50
2019-03-29T05:22:15.815Z,34.70
2019-03-29T05:23:15.788Z,34.40
2019-03-29T05:24:15.773Z,34.30
2019-03-29T05:25:15.758Z,35.00
2019-03-29T05:26:15.732Z,34.20
2019-03-29T05:27:15.716Z,34.40
2019-03-29T05:28:15.768Z,34.60
2019-03-29T05:29:15.672Z,34.20
2019-03-29T05:30:15.665Z,34.70
2019-03-29T05:31:15.638Z,34.00
2019-03-29T05:32:15.621Z,34.50
2019-03-29T05:33:15.601Z,34.40
2019-03-29T05:34:15.581Z,36.20
2019-03-29T05:35:15.562Z,35.60
2019-03-29T05:36:15.536Z,37.10
2019-03-29T05:37:15.522Z,36.10
2019-03-29T05:38:15.502Z,37.00
2019-03-29T05:39:15.493Z,35.10
2019-03-29T05:40:15.462Z,35.40
2019-03-29T05:41:15.450Z,36.40
2019-03-29T05:42:15.427Z,38.30
2019-03-29T05:43:15.401Z,36.60
2019-03-29T05:44:15.389Z,34.70
2019-03-29T05:45:15.366Z,37.30
2019-03-29T05:46:15.349Z,38.10
2019-03-29T05:47:15.329Z,36.50
2019-03-29T05:48:15.311Z,36.80
2019-03-29T05:49:15.287Z,36.10
2019-03-29T05:50:15.273Z,35.00
2019-03-29T05:51:15.253Z,36.10
2019-03-29T05:52:15.234Z,36.50
2019-03-29T05:53:15.213Z,36.00
2019-03-29T05:54:15.192Z,37.10
2019-03-29T05:55:15.175Z,35.60
2019-03-29T05:56:15.163Z,36.80
2019-03-29T05:57:15.148Z,36.10
2019-03-29T05:58:15.116Z,41.20
2019-03-29T05:59:15.099Z,40.70
2019-03-29T06:00:15.079Z,40.70
2019-03-29T06:01:15.055Z,39.60
2019-03-29T06:02:15.038Z,37.80
2019-03-29T06:03:15.021Z,37.10
2019-03-29T06:04:14.999Z,37.40
2019-03-29T06:05:14.979Z,36.30
2019-03-29T06:06:14.965Z,35.90
2019-03-29T06:07:14.943Z,37.60
2019-03-29T06:08:14.923Z,36.00
2019-03-29T06:09:14.909Z,36.70
2019-03-29T06:10:14.885Z,35.80
2019-03-29T06:11:14.869Z,36.50
2019-03-29T06:12:14.845Z,37.40
2019-03-29T06:13:14.829Z,38.60
2019-03-29T06:14:14.814Z,38.90
2019-03-29T06:15:14.789Z,36.20
2019-03-29T06:16:14.769Z,36.00
2019-03-29T06:17:14.755Z,35.40
2019-03-29T06:18:14.735Z,34.70
2019-03-29T06:19:14.715Z,35.60
2019-03-29T06:20:14.701Z,34.20
2019-03-29T06:21:14.675Z,33.30
2019-03-29T06:22:14.655Z,35.20
2019-03-29T06:23:14.637Z,34.60
2019-03-29T06:24:14.621Z,38.30
2019-03-29T06:25:14.608Z,36.50
2019-03-29T06:26:14.584Z,36.30
2019-03-29T06:27:14.565Z,39.20
2019-03-29T06:28:14.542Z,41.20
2019-03-29T06:29:14.526Z,39.10
2019-03-29T06:30:14.517Z,37.40
2019-03-29T06:31:14.488Z,35.90
2019-03-29T06:32:14.468Z,35.30
2019-03-29T06:33:14.447Z,36.30
2019-03-29T06:34:14.432Z,35.40
2019-03-29T06:35:14.416Z,37.00
2019-03-29T06:36:14.399Z,39.80
2019-03-29T06:37:14.454Z,36.60
2019-03-29T06:38:14.361Z,35.90
2019-03-29T06:39:14.339Z,37.80
2019-03-29T06:40:14.326Z,35.60
2019-03-29T06:41:14.298Z,36.20
2019-03-29T06:42:14.281Z,35.50
2019-03-29T06:43:14.262Z,34.40
2019-03-29T06:44:14.243Z,34.00
2019-03-29T06:45:14.221Z,34.10
2019-03-29T06:46:14.208Z,36.90
2019-03-29T06:47:14.186Z,36.00
2019-03-29T06:48:14.166Z,35.70
2019-03-29T06:49:14.150Z,35.40
2019-03-29T06:50:14.367Z,35.40
2019-03-29T06:51:14.111Z,35.90
2019-03-29T06:52:14.097Z,36.00
2019-03-29T06:53:14.078Z,34.80
2019-03-29T06:54:14.056Z,33.90
2019-03-29T06:55:14.039Z,33.50
2019-03-29T06:56:14.018Z,35.00
2019-03-29T06:57:14.002Z,35.60
2019-03-29T06:58:14.000Z,33.20
2019-03-29T06:59:13.962Z,35.00
2019-03-29T07:00:13.947Z,33.10
2019-03-29T07:01:13.928Z,34.40
2019-03-29T07:02:13.916Z,32.40
2019-03-29T07:03:13.893Z,33.80
2019-03-29T07:04:13.876Z,32.90
2019-03-29T07:05:13.854Z,34.40
2019-03-29T07:06:13.836Z,33.60
2019-03-29T07:07:13.818Z,32.20
2019-03-29T07:08:13.798Z,32.30
2019-03-29T07:09:13.788Z,32.40
2019-03-29T07:10:13.766Z,33.30
2019-03-29T07:11:17.809Z,33.00
2019-03-29T07:12:13.729Z,33.60
2019-03-29T07:13:13.711Z,32.70
2019-03-29T07:14:13.694Z,31.50
2019-03-29T07:15:13.677Z,31.70
2019-03-29T07:16:13.654Z,32.50
2019-03-29T07:17:13.641Z,32.10
2019-03-29T07:18:13.620Z,31.10
2019-03-29T07:19:13.600Z,31.50
2019-03-29T07:20:13.590Z,31.40
2019-03-29T07:21:21.337Z,31.80
2019-03-29T07:22:13.548Z,32.90
2019-03-29T07:23:13.532Z,32.00
2019-03-29T07:24:13.512Z,31.40
2019-03-29T07:25:13.495Z,31.20
2019-03-29T07:26:13.478Z,31.50
2019-03-29T07:27:13.524Z,32.20
2019-03-29T07:28:13.445Z,37.70
2019-03-29T07:29:13.426Z,32.50
2019-03-29T07:30:13.405Z,31.40
2019-03-29T07:31:13.384Z,30.80
2019-03-29T07:32:13.370Z,30.50
2019-03-29T07:33:13.354Z,30.40
2019-03-29T07:34:13.335Z,31.70
2019-03-29T07:35:13.316Z,35.50
2019-03-29T07:36:13.297Z,31.10
2019-03-29T07:37:13.283Z,30.50
2019-03-29T07:38:13.260Z,30.00
2019-03-29T07:39:13.241Z,30.00
2019-03-29T07:40:13.226Z,32.40
2019-03-29T07:41:13.214Z,32.60
2019-03-29T07:42:13.188Z,31.20
2019-03-29T07:43:13.170Z,31.70
2019-03-29T07:44:13.150Z,31.20
2019-03-29T07:45:13.148Z,30.60
2019-03-29T07:46:13.119Z,30.20
2019-03-29T07:47:13.102Z,39.40
2019-03-29T07:48:13.083Z,37.50
2019-03-29T07:49:13.078Z,34.60
2019-03-29T07:50:13.043Z,30.70
2019-03-29T07:51:13.028Z,31.90
2019-03-29T07:52:13.010Z,30.20
2019-03-29T07:53:12.995Z,30.30
2019-03-29T07:54:12.974Z,31.00
2019-03-29T07:55:12.957Z,29.40
2019-03-29T07:56:12.935Z,32.70
2019-03-29T07:57:12.922Z,30.50
2019-03-29T07:58:12.901Z,30.00
2019-03-29T07:59:12.882Z,32.00
2019-03-29T08:00:12.866Z,30.20
2019-03-29T08:01:12.846Z,30.50
2019-03-29T08:02:12.837Z,29.50
2019-03-29T08:03:12.822Z,29.80
2019-03-29T08:04:12.797Z,30.60
2019-03-29T08:05:12.780Z,30.40
2019-03-29T08:06:12.762Z,32.00
2019-03-29T08:07:26.324Z,30.80
2019-03-29T08:08:23.208Z,31.10
2019-03-29T08:09:22.429Z,30.70
2019-03-29T08:10:24.182Z,31.30
2019-03-29T08:11:25.535Z,31.10
2019-03-29T08:12:12.650Z,31.60
2019-03-29T08:13:12.639Z,31.40
2019-03-29T08:14:14.964Z,30.50
2019-03-29T08:15:12.602Z,30.90
2019-03-29T08:16:12.591Z,31.60
2019-03-29T08:17:12.570Z,32.10
2019-03-29T08:18:12.555Z,30.30
2019-03-29T08:19:12.529Z,30.40
2019-03-29T08:20:38.935Z,31.00
2019-03-29T08:21:12.550Z,30.90
2019-03-29T08:22:12.480Z,30.40
2019-03-29T08:23:12.470Z,30.70
2019-03-29T08:24:12.449Z,29.80
2019-03-29T08:25:12.434Z,29.80
2019-03-29T08:26:12.415Z,29.90
2019-03-29T08:27:12.401Z,29.90
2019-03-29T08:28:12.376Z,30.40
2019-03-29T08:29:12.359Z,30.40
2019-03-29T08:30:12.347Z,29.80
2019-03-29T08:31:12.321Z,30.50
2019-03-29T08:32:12.317Z,29.20
2019-03-29T08:33:12.295Z,29.40
2019-03-29T08:34:12.275Z,30.00
2019-03-29T08:35:12.258Z,28.50
2019-03-29T08:36:12.237Z,29.80
2019-03-29T08:37:12.222Z,28.90
2019-03-29T08:38:12.201Z,28.60
2019-03-29T08:39:12.188Z,28.60
2019-03-29T08:40:12.173Z,29.20
2019-03-29T08:41:12.157Z,31.70
2019-03-29T08:42:12.137Z,33.50
2019-03-29T08:43:12.127Z,30.30
2019-03-29T08:44:12.107Z,29.40
2019-03-29T08:45:12.083Z,29.30
2019-03-29T08:46:12.069Z,28.50
2019-03-29T08:47:12.057Z,28.80
2019-03-29T08:48:12.041Z,30.20
2019-03-29T08:49:12.019Z,28.70
2019-03-29T08:50:12.009Z,30.10
2019-03-29T08:51:11.989Z,28.40
2019-03-29T08:52:11.968Z,27.90
2019-03-29T08:53:11.959Z,30.30
2019-03-29T08:54:11.941Z,31.70
2019-03-29T08:55:11.917Z,29.30
2019-03-29T08:56:11.906Z,30.80
2019-03-29T08:57:11.887Z,29.90
2019-03-29T08:58:11.869Z,29.00
2019-03-29T08:59:11.884Z,26.80
2019-03-29T09:00:11.839Z,27.40
2019-03-29T09:01:11.827Z,29.20
2019-03-29T09:02:11.804Z,27.40
2019-03-29T09:03:11.788Z,28.50
2019-03-29T09:04:11.774Z,27.40
2019-03-29T09:05:11.755Z,26.40
2019-03-29T09:06:11.753Z,27.80
2019-03-29T09:07:11.723Z,27.60
2019-03-29T09:08:11.710Z,27.60
2019-03-29T09:09:12.220Z,30.40
2019-03-29T09:10:11.686Z,26.90
2019-03-29T09:11:11.662Z,27.20
2019-03-29T09:12:14.715Z,27.70
2019-03-29T09:13:11.627Z,26.50
2019-03-29T09:14:11.614Z,25.50
2019-03-29T09:15:11.596Z,27.40
2019-03-29T09:16:11.580Z,26.60
2019-03-29T09:17:11.565Z,26.00
2019-03-29T09:18:11.554Z,26.10
2019-03-29T09:19:11.534Z,26.20
2019-03-29T09:20:11.533Z,25.40
2019-03-29T09:21:11.501Z,24.30
2019-03-29T09:22:11.488Z,24.90
2019-03-29T09:23:11.482Z,24.40
2019-03-29T09:24:22.036Z,24.50
2019-03-29T09:25:11.437Z,25.30
2019-03-29T09:26:11.422Z,27.50
2019-03-29T09:27:11.409Z,25.90
2019-03-29T09:28:11.392Z,25.10
2019-03-29T09:29:11.373Z,22.60
2019-03-29T09:30:11.359Z,21.00
2019-03-29T09:31:11.344Z,24.10
2019-03-29T09:32:11.331Z,23.10
2019-03-29T09:33:11.311Z,23.60
2019-03-29T09:34:11.291Z,21.60
2019-03-29T09:35:11.284Z,21.10
2019-03-29T09:36:11.261Z,22.00
2019-03-29T09:37:11.247Z,22.80
2019-03-29T09:38:11.235Z,21.30
2019-03-29T09:39:11.229Z,21.80
2019-03-29T09:40:13.920Z,21.50
2019-03-29T09:41:11.184Z,22.10
2019-03-29T09:42:11.180Z,20.90
2019-03-29T09:43:11.167Z,22.60
2019-03-29T09:44:11.139Z,22.60
2019-03-29T09:45:11.136Z,23.00
2019-03-29T09:46:11.129Z,20.60
2019-03-29T09:47:11.095Z,21.70
2019-03-29T09:48:11.078Z,20.80
2019-03-29T09:49:11.056Z,21.40
2019-03-29T09:50:11.051Z,20.20
2019-03-29T09:51:11.026Z,22.30
2019-03-29T09:52:11.011Z,22.40
2019-03-29T09:53:10.998Z,19.80
2019-03-29T09:54:10.980Z,20.50
2019-03-29T09:55:10.971Z,19.90
2019-03-29T09:56:10.944Z,19.90
2019-03-29T09:57:15.192Z,18.80
2019-03-29T09:58:10.916Z,18.90
2019-03-29T09:59:10.898Z,19.60
2019-03-29T10:00:22.417Z,18.60
2019-03-29T10:01:10.875Z,19.10
2019-03-29T10:02:10.853Z,20.20
2019-03-29T10:03:10.836Z,18.90
2019-03-29T10:04:10.819Z,21.00
2019-03-29T10:05:10.798Z,20.60
2019-03-29T10:06:10.789Z,20.60
2019-03-29T10:07:10.781Z,20.90
2019-03-29T10:08:10.753Z,21.30
2019-03-29T10:09:10.738Z,22.50
2019-03-29T10:10:10.718Z,21.60
2019-03-29T10:11:10.707Z,21.10
2019-03-29T10:12:10.687Z,18.50
2019-03-29T10:13:10.672Z,19.20
2019-03-29T10:14:10.656Z,19.70
2019-03-29T10:15:10.645Z,19.00
2019-03-29T10:16:10.626Z,20.00
2019-03-29T10:17:10.606Z,19.70
2019-03-29T10:18:10.590Z,20.50
2019-03-29T10:19:10.579Z,19.60
2019-03-29T10:20:10.558Z,19.60
2019-03-29T10:21:10.540Z,19.40
2019-03-29T10:22:10.529Z,19.20
2019-03-29T10:23:10.508Z,20.30
2019-03-29T10:24:10.487Z,20.30
2019-03-29T10:25:19.329Z,21.00
2019-03-29T10:26:10.460Z,20.70
2019-03-29T10:27:10.443Z,21.10
2019-03-29T10:28:10.710Z,21.60
2019-03-29T10:29:10.415Z,20.30
2019-03-29T10:30:10.392Z,19.80
2019-03-29T10:31:10.379Z,20.70
2019-03-29T10:32:10.367Z,20.30
2019-03-29T10:33:10.354Z,20.60
2019-03-29T10:34:10.331Z,19.60
2019-03-29T10:35:10.313Z,19.40
2019-03-29T10:36:10.294Z,19.20
2019-03-29T10:37:10.275Z,18.50
2019-03-29T10:38:10.262Z,19.20
2019-03-29T10:39:10.249Z,18.40
2019-03-29T10:40:10.285Z,18.10
2019-03-29T10:41:10.211Z,19.30
2019-03-29T10:42:10.197Z,18.50
2019-03-29T10:43:10.185Z,18.10
2019-03-29T10:44:10.162Z,18.40
2019-03-29T10:45:10.164Z,18.40
2019-03-29T10:46:10.127Z,17.60
2019-03-29T10:47:10.112Z,18.20
2019-03-29T10:48:10.101Z,17.50
2019-03-29T10:49:10.085Z,17.20
2019-03-29T10:50:10.065Z,17.30
2019-03-29T10:51:10.049Z,17.30
2019-03-29T10:52:10.032Z,17.30
2019-03-29T10:53:10.028Z,18.00
2019-03-29T10:54:09.996Z,17.70
2019-03-29T10:55:09.977Z,18.00
2019-03-29T10:56:09.963Z,17.40
2019-03-29T10:57:09.947Z,17.20
2019-03-29T10:58:10.191Z,18.20
2019-03-29T10:59:09.914Z,17.60
2019-03-29T11:00:09.895Z,16.90
2019-03-29T11:01:09.882Z,17.80
2019-03-29T11:02:09.863Z,18.00
2019-03-29T11:03:09.847Z,17.30
2019-03-29T11:04:09.830Z,17.10
2019-03-29T11:05:09.817Z,17.70
2019-03-29T11:06:09.796Z,18.50
2019-03-29T11:07:09.783Z,17.60
2019-03-29T11:08:12.068Z,17.00
2019-03-29T11:09:09.748Z,17.40
2019-03-29T11:10:09.731Z,17.10
2019-03-29T11:11:09.719Z,16.30
2019-03-29T11:12:09.695Z,16.20
2019-03-29T11:13:14.146Z,16.30
2019-03-29T11:14:09.672Z,16.40
2019-03-29T11:15:09.646Z,16.20
2019-03-29T11:16:09.634Z,15.30
2019-03-29T11:17:09.615Z,15.10
2019-03-29T11:18:09.664Z,14.30
2019-03-29T11:19:09.582Z,14.30
2019-03-29T11:20:09.566Z,14.20
2019-03-29T11:21:09.552Z,14.20
2019-03-29T11:22:09.539Z,14.60
2019-03-29T11:23:09.531Z,14.10
2019-03-29T11:24:09.636Z,14.50
2019-03-29T11:25:09.487Z,13.70
2019-03-29T11:26:09.471Z,14.40
2019-03-29T11:27:09.452Z,13.70
2019-03-29T11:28:09.436Z,13.40
2019-03-29T11:29:09.418Z,13.10
2019-03-29T11:30:09.401Z,12.90
2019-03-29T11:31:09.385Z,13.50
2019-03-29T11:32:09.369Z,13.50
2019-03-29T11:33:09.352Z,13.00
2019-03-29T11:34:09.337Z,13.00
2019-03-29T11:35:09.317Z,13.70
2019-03-29T11:36:09.303Z,13.50
2019-03-29T11:37:09.288Z,13.80
2019-03-29T11:38:09.313Z,13.50
2019-03-29T11:39:09.257Z,13.10
2019-03-29T11:40:09.237Z,11.50
2019-03-29T11:41:09.223Z,11.00
2019-03-29T11:42:09.211Z,9.70
2019-03-29T11:43:09.188Z,9.80
2019-03-29T11:44:09.170Z,9.60
2019-03-29T11:45:09.161Z,9.30
2019-03-29T11:46:09.138Z,9.00
2019-03-29T11:47:09.124Z,9.40
2019-03-29T11:48:09.732Z,10.10
2019-03-29T11:49:09.093Z,10.70
2019-03-29T11:50:09.081Z,11.10
2019-03-29T11:51:19.398Z,10.90
2019-03-29T11:52:09.038Z,11.00
2019-03-29T11:53:09.030Z,10.00
2019-03-29T11:54:09.012Z,9.70
2019-03-29T11:55:08.998Z,9.40
2019-03-29T11:56:08.980Z,10.30
2019-03-29T11:57:08.962Z,9.70
2019-03-29T11:58:08.946Z,9.60
2019-03-29T11:59:08.931Z,10.10
2019-03-29T12:00:08.913Z,10.50
2019-03-29T12:01:08.942Z,10.70
2019-03-29T12:02:08.884Z,10.70
2019-03-29T12:03:09.767Z,11.00
2019-03-29T12:04:08.850Z,10.80
2019-03-29T12:05:08.835Z,10.20
2019-03-29T12:06:08.818Z,11.00
2019-03-29T12:07:08.808Z,10.20
2019-03-29T12:08:08.788Z,10.10
2019-03-29T12:09:08.770Z,10.00
2019-03-29T12:10:08.758Z,9.50
2019-03-29T12:11:08.741Z,10.10
2019-03-29T12:12:08.720Z,9.50
2019-03-29T12:13:08.710Z,10.00
2019-03-29T12:14:08.690Z,10.30
2019-03-29T12:15:08.674Z,9.90
2019-03-29T12:16:08.656Z,10.10
2019-03-29T12:17:08.641Z,10.10
2019-03-29T12:18:08.622Z,10.20
2019-03-29T12:19:08.660Z,10.30
2019-03-29T12:20:08.644Z,9.80
2019-03-29T12:21:08.590Z,10.60
2019-03-29T12:22:08.565Z,10.70
2019-03-29T12:23:08.572Z,9.80
2019-03-29T12:24:08.539Z,10.30
2019-03-29T12:25:08.514Z,9.60
2019-03-29T12:26:08.499Z,10.40
2019-03-29T12:27:08.493Z,10.30
2019-03-29T12:28:08.468Z,10.00
2019-03-29T12:29:08.454Z,10.30
2019-03-29T12:30:08.446Z,10.70
2019-03-29T12:31:08.426Z,11.10
2019-03-29T12:32:08.410Z,10.60
2019-03-29T12:33:08.388Z,10.80
2019-03-29T12:34:08.376Z,10.30
2019-03-29T12:35:09.988Z,9.70
2019-03-29T12:36:08.343Z,10.80
2019-03-29T12:37:08.325Z,10.10
2019-03-29T12:38:08.306Z,10.00
2019-03-29T12:39:08.294Z,10.30
2019-03-29T12:40:08.276Z,10.60
2019-03-29T12:41:08.262Z,9.90
2019-03-29T12:42:08.246Z,10.80
2019-03-29T12:43:08.231Z,11.00
2019-03-29T12:44:08.212Z,11.10
2019-03-29T12:45:08.202Z,11.20
2019-03-29T12:46:08.183Z,11.60
2019-03-29T12:47:08.166Z,11.10
2019-03-29T12:48:08.160Z,10.50
2019-03-29T12:49:08.136Z,10.40
2019-03-29T12:50:08.118Z,10.30
2019-03-29T12:51:08.111Z,11.00
2019-03-29T12:52:08.090Z,10.70
2019-03-29T12:53:08.072Z,10.60